sensor_id;sensor_type;location;lat;lon;timestamp;P1;durP1;ratioP1;P2;durP2;ratioP2
62927;SDS011;51070;52.236;-0.892;2023-04-24T00:01:14;7.80;;;5.30;;
62927;SDS011;51070;52.236;-0.892;2023-04-24T00:03:40;7.80;;;5.20;;
62927;SDS011;51070;52.236;-0.892;2023-04-24T00:06:06;7.80;;;4.90;;
62927;SDS011;51070;52.236;-0.892;2023-04-24T00:08:33;8.90;;;5.30;;
62927;SDS011;51070;52.236;-0.892;2023-04-24T00:11:00;9.60;;;5.40;;
62927;SDS011;51070;52.236;-0.892;2023-04-24T00:13:25;7.20;;;5.30;;
62927;SDS011;51070;52.236;-0.892;2023-04-24T00:15:53;8.80;;;5.90;;
62927;SDS011;51070;52.236;-0.892;2023-04-24T00:18:19;11.60;;;6.30;;
62927;SDS011;51070;52.236;-0.892;2023-04-24T00:20:45;8.20;;;5.70;;
62927;SDS011;51070;52.236;-0.892;2023-04-24T00:23:12;7.40;;;5.60;;
62927;SDS011;51070;52.236;-0.892;2023-04-24T00:25:37;8.90;;;5.70;;
62927;SDS011;51070;52.236;-0.892;2023-04-24T00:28:03;6.40;;;4.40;;
62927;SDS011;51070;52.236;-0.892;2023-04-24T00:30:28;10.60;;;7.00;;
62927;SDS011;51070;52.236;-0.892;2023-04-24T00:32:54;9.20;;;6.40;;
62927;SDS011;51070;52.236;-0.892;2023-04-24T00:35:19;10.60;;;6.50;;
62927;SDS011;51070;52.236;-0.892;2023-04-24T00:37:45;7.60;;;6.40;;
62927;SDS011;51070;52.236;-0.892;2023-04-24T00:40:11;11.00;;;7.40;;
62927;SDS011;51070;52.236;-0.892;2023-04-24T00:42:37;12.10;;;7.60;;
62927;SDS011;51070;52.236;-0.892;2023-04-24T00:45:04;8.80;;;7.00;;
62927;SDS011;51070;52.236;-0.892;2023-04-24T00:47:30;11.70;;;8.10;;
62927;SDS011;51070;52.236;-0.892;2023-04-24T00:49:58;10.70;;;7.40;;
62927;SDS011;51070;52.236;-0.892;2023-04-24T00:52:24;10.90;;;7.40;;
62927;SDS011;51070;52.236;-0.892;2023-04-24T00:54:50;11.50;;;8.50;;
62927;SDS011;51070;52.236;-0.892;2023-04-24T00:57:16;11.10;;;8.20;;
62927;SDS011;51070;52.236;-0.892;2023-04-24T00:59:42;11.20;;;8.10;;
62927;SDS011;51070;52.236;-0.892;2023-04-24T01:02:09;12.10;;;7.00;;
62927;SDS011;51070;52.236;-0.892;2023-04-24T01:04:35;10.40;;;6.10;;
62927;SDS011;51070;52.236;-0.892;2023-04-24T01:07:01;7.60;;;5.60;;
62927;SDS011;51070;52.236;-0.892;2023-04-24T01:09:27;10.30;;;5.80;;
62927;SDS011;51070;52.236;-0.892;2023-04-24T01:11:52;7.00;;;4.20;;
62927;SDS011;51070;52.236;-0.892;2023-04-24T01:14:18;4.90;;;3.60;;
62927;SDS011;51070;52.236;-0.892;2023-04-24T01:16:43;8.40;;;4.00;;
62927;SDS011;51070;52.236;-0.892;2023-04-24T01:19:09;8.80;;;4.10;;
62927;SDS011;51070;52.236;-0.892;2023-04-24T01:21:36;6.00;;;4.00;;
62927;SDS011;51070;52.236;-0.892;2023-04-24T01:24:05;9.90;;;4.20;;
62927;SDS011;51070;52.236;-0.892;2023-04-24T01:26:31;9.00;;;4.10;;
62927;SDS011;51070;52.236;-0.892;2023-04-24T01:28:57;7.90;;;4.40;;
62927;SDS011;51070;52.236;-0.892;2023-04-24T01:31:23;9.90;;;5.00;;
62927;SDS011;51070;52.236;-0.892;2023-04-24T01:33:49;7.90;;;4.50;;
62927;SDS011;51070;52.236;-0.892;2023-04-24T01:36:14;7.90;;;4.80;;
62927;SDS011;51070;52.236;-0.892;2023-04-24T01:38:42;12.70;;;5.50;;
62927;SDS011;51070;52.236;-0.892;2023-04-24T01:41:07;13.30;;;5.70;;
62927;SDS011;51070;52.236;-0.892;2023-04-24T01:43:33;12.60;;;5.50;;
62927;SDS011;51070;52.236;-0.892;2023-04-24T01:45:58;9.60;;;4.70;;
62927;SDS011;51070;52.236;-0.892;2023-04-24T01:48:24;5.70;;;3.70;;
62927;SDS011;51070;52.236;-0.892;2023-04-24T01:50:50;6.30;;;4.10;;
62927;SDS011;51070;52.236;-0.892;2023-04-24T01:53:15;9.40;;;4.50;;
62927;SDS011;51070;52.236;-0.892;2023-04-24T01:55:40;12.10;;;4.30;;
62927;SDS011;51070;52.236;-0.892;2023-04-24T01:58:06;9.10;;;5.00;;
62927;SDS011;51070;52.236;-0.892;2023-04-24T02:00:32;8.80;;;4.40;;
62927;SDS011;51070;52.236;-0.892;2023-04-24T02:02:58;9.20;;;3.80;;
62927;SDS011;51070;52.236;-0.892;2023-04-24T02:05:24;8.90;;;3.90;;
62927;SDS011;51070;52.236;-0.892;2023-04-24T02:07:49;8.90;;;4.40;;
62927;SDS011;51070;52.236;-0.892;2023-04-24T02:10:15;9.00;;;4.30;;
62927;SDS011;51070;52.236;-0.892;2023-04-24T02:12:40;7.60;;;4.00;;
62927;SDS011;51070;52.236;-0.892;2023-04-24T02:15:06;6.20;;;3.50;;
62927;SDS011;51070;52.236;-0.892;2023-04-24T02:17:32;7.20;;;3.90;;
62927;SDS011;51070;52.236;-0.892;2023-04-24T02:19:57;9.50;;;4.10;;
62927;SDS011;51070;52.236;-0.892;2023-04-24T02:22:22;9.40;;;3.70;;
62927;SDS011;51070;52.236;-0.892;2023-04-24T02:24:48;6.40;;;2.70;;
62927;SDS011;51070;52.236;-0.892;2023-04-24T02:27:13;9.80;;;3.50;;
62927;SDS011;51070;52.236;-0.892;2023-04-24T02:29:38;7.50;;;3.20;;
62927;SDS011;51070;52.236;-0.892;2023-04-24T02:32:04;6.70;;;3.10;;
62927;SDS011;51070;52.236;-0.892;2023-04-24T02:34:29;6.20;;;3.30;;
62927;SDS011;51070;52.236;-0.892;2023-04-24T02:36:55;9.20;;;2.90;;
62927;SDS011;51070;52.236;-0.892;2023-04-24T02:39:20;7.80;;;3.40;;
62927;SDS011;51070;52.236;-0.892;2023-04-24T02:41:46;7.50;;;3.40;;
62927;SDS011;51070;52.236;-0.892;2023-04-24T02:44:11;7.80;;;4.50;;
62927;SDS011;51070;52.236;-0.892;2023-04-24T02:46:37;9.80;;;3.40;;
62927;SDS011;51070;52.236;-0.892;2023-04-24T02:49:03;8.50;;;3.10;;
62927;SDS011;51070;52.236;-0.892;2023-04-24T02:51:28;6.20;;;3.30;;
62927;SDS011;51070;52.236;-0.892;2023-04-24T02:53:54;6.80;;;2.90;;
62927;SDS011;51070;52.236;-0.892;2023-04-24T02:56:20;5.40;;;2.50;;
62927;SDS011;51070;52.236;-0.892;2023-04-24T02:58:45;6.90;;;3.00;;
62927;SDS011;51070;52.236;-0.892;2023-04-24T03:01:10;5.80;;;2.70;;
62927;SDS011;51070;52.236;-0.892;2023-04-24T03:03:37;6.20;;;3.20;;
62927;SDS011;51070;52.236;-0.892;2023-04-24T03:06:03;10.70;;;3.00;;
62927;SDS011;51070;52.236;-0.892;2023-04-24T03:08:30;7.90;;;2.30;;
62927;SDS011;51070;52.236;-0.892;2023-04-24T03:13:25;4.50;;;1.90;;
62927;SDS011;51070;52.236;-0.892;2023-04-24T03:15:50;6.20;;;2.90;;
62927;SDS011;51070;52.236;-0.892;2023-04-24T03:18:15;6.30;;;2.40;;
62927;SDS011;51070;52.236;-0.892;2023-04-24T03:20:41;8.10;;;2.40;;
62927;SDS011;51070;52.236;-0.892;2023-04-24T03:23:06;5.30;;;2.00;;
62927;SDS011;51070;52.236;-0.892;2023-04-24T03:25:32;7.50;;;2.20;;
62927;SDS011;51070;52.236;-0.892;2023-04-24T03:27:57;6.90;;;2.20;;
62927;SDS011;51070;52.236;-0.892;2023-04-24T03:30:23;6.50;;;2.60;;
62927;SDS011;51070;52.236;-0.892;2023-04-24T03:32:48;5.80;;;2.70;;
62927;SDS011;51070;52.236;-0.892;2023-04-24T03:35:14;7.10;;;2.60;;
62927;SDS011;51070;52.236;-0.892;2023-04-24T03:37:39;4.50;;;1.80;;
62927;SDS011;51070;52.236;-0.892;2023-04-24T03:40:05;6.40;;;2.50;;
62927;SDS011;51070;52.236;-0.892;2023-04-24T03:42:32;6.80;;;2.50;;
62927;SDS011;51070;52.236;-0.892;2023-04-24T03:44:57;6.20;;;2.30;;
62927;SDS011;51070;52.236;-0.892;2023-04-24T03:47:23;7.80;;;2.60;;
62927;SDS011;51070;52.236;-0.892;2023-04-24T03:49:48;6.20;;;2.40;;
62927;SDS011;51070;52.236;-0.892;2023-04-24T03:52:14;4.90;;;1.60;;
62927;SDS011;51070;52.236;-0.892;2023-04-24T03:54:39;7.30;;;2.30;;
62927;SDS011;51070;52.236;-0.892;2023-04-24T03:57:05;6.90;;;1.80;;
62927;SDS011;51070;52.236;-0.892;2023-04-24T03:59:30;5.50;;;1.70;;
62927;SDS011;51070;52.236;-0.892;2023-04-24T04:01:56;5.50;;;1.40;;
62927;SDS011;51070;52.236;-0.892;2023-04-24T04:04:21;5.00;;;2.30;;
62927;SDS011;51070;52.236;-0.892;2023-04-24T04:06:47;5.40;;;1.60;;
62927;SDS011;51070;52.236;-0.892;2023-04-24T04:09:13;4.50;;;1.90;;
62927;SDS011;51070;52.236;-0.892;2023-04-24T04:11:39;3.70;;;1.40;;
62927;SDS011;51070;52.236;-0.892;2023-04-24T04:14:04;5.20;;;1.60;;
62927;SDS011;51070;52.236;-0.892;2023-04-24T04:16:30;5.10;;;1.90;;
62927;SDS011;51070;52.236;-0.892;2023-04-24T04:18:56;4.10;;;1.90;;
62927;SDS011;51070;52.236;-0.892;2023-04-24T04:21:21;4.40;;;1.80;;
62927;SDS011;51070;52.236;-0.892;2023-04-24T04:23:47;6.80;;;1.90;;
62927;SDS011;51070;52.236;-0.892;2023-04-24T04:26:13;2.10;;;1.50;;
62927;SDS011;51070;52.236;-0.892;2023-04-24T04:28:39;5.30;;;2.00;;
62927;SDS011;51070;52.236;-0.892;2023-04-24T04:31:04;4.20;;;1.50;;
62927;SDS011;51070;52.236;-0.892;2023-04-24T04:33:33;4.20;;;1.60;;
62927;SDS011;51070;52.236;-0.892;2023-04-24T04:35:58;3.50;;;1.40;;
62927;SDS011;51070;52.236;-0.892;2023-04-24T04:38:25;4.50;;;2.00;;
62927;SDS011;51070;52.236;-0.892;2023-04-24T04:40:54;2.10;;;1.40;;
62927;SDS011;51070;52.236;-0.892;2023-04-24T04:43:22;5.00;;;1.50;;
62927;SDS011;51070;52.236;-0.892;2023-04-24T04:45:49;4.40;;;1.70;;
62927;SDS011;51070;52.236;-0.892;2023-04-24T04:48:16;3.50;;;1.50;;
62927;SDS011;51070;52.236;-0.892;2023-04-24T04:50:42;5.60;;;1.40;;
62927;SDS011;51070;52.236;-0.892;2023-04-24T04:53:08;3.60;;;1.80;;
62927;SDS011;51070;52.236;-0.892;2023-04-24T04:55:33;4.20;;;1.40;;
62927;SDS011;51070;52.236;-0.892;2023-04-24T04:57:59;5.10;;;1.80;;
62927;SDS011;51070;52.236;-0.892;2023-04-24T05:00:25;6.50;;;1.80;;
62927;SDS011;51070;52.236;-0.892;2023-04-24T05:02:51;3.00;;;1.40;;
62927;SDS011;51070;52.236;-0.892;2023-04-24T05:05:16;3.80;;;1.30;;
62927;SDS011;51070;52.236;-0.892;2023-04-24T05:07:43;4.50;;;1.40;;
62927;SDS011;51070;52.236;-0.892;2023-04-24T05:10:09;4.90;;;1.50;;
62927;SDS011;51070;52.236;-0.892;2023-04-24T05:12:36;5.10;;;1.30;;
62927;SDS011;51070;52.236;-0.892;2023-04-24T05:15:01;2.90;;;1.20;;
62927;SDS011;51070;52.236;-0.892;2023-04-24T05:17:28;3.70;;;1.20;;
62927;SDS011;51070;52.236;-0.892;2023-04-24T05:19:54;4.40;;;1.30;;
62927;SDS011;51070;52.236;-0.892;2023-04-24T05:22:20;6.20;;;1.50;;
62927;SDS011;51070;52.236;-0.892;2023-04-24T05:24:46;2.90;;;1.30;;
62927;SDS011;51070;52.236;-0.892;2023-04-24T05:27:13;3.70;;;1.20;;
62927;SDS011;51070;52.236;-0.892;2023-04-24T05:29:38;4.40;;;1.50;;
62927;SDS011;51070;52.236;-0.892;2023-04-24T05:32:04;3.70;;;1.70;;
62927;SDS011;51070;52.236;-0.892;2023-04-24T05:34:29;3.90;;;1.70;;
62927;SDS011;51070;52.236;-0.892;2023-04-24T05:36:55;4.80;;;1.50;;
62927;SDS011;51070;52.236;-0.892;2023-04-24T05:39:20;3.60;;;2.00;;
62927;SDS011;51070;52.236;-0.892;2023-04-24T05:41:46;2.30;;;1.60;;
62927;SDS011;51070;52.236;-0.892;2023-04-24T05:44:11;1.70;;;1.30;;
62927;SDS011;51070;52.236;-0.892;2023-04-24T05:46:37;7.70;;;1.70;;
62927;SDS011;51070;52.236;-0.892;2023-04-24T05:49:02;3.50;;;1.30;;
62927;SDS011;51070;52.236;-0.892;2023-04-24T05:51:28;3.10;;;1.30;;
62927;SDS011;51070;52.236;-0.892;2023-04-24T05:53:54;4.80;;;1.60;;
62927;SDS011;51070;52.236;-0.892;2023-04-24T05:56:20;8.10;;;1.70;;
62927;SDS011;51070;52.236;-0.892;2023-04-24T05:58:46;8.10;;;2.30;;
62927;SDS011;51070;52.236;-0.892;2023-04-24T06:01:12;5.80;;;1.50;;
62927;SDS011;51070;52.236;-0.892;2023-04-24T06:03:40;3.90;;;1.50;;
62927;SDS011;51070;52.236;-0.892;2023-04-24T06:06:06;3.90;;;1.90;;
62927;SDS011;51070;52.236;-0.892;2023-04-24T06:08:32;3.80;;;1.60;;
62927;SDS011;51070;52.236;-0.892;2023-04-24T06:10:57;5.10;;;1.50;;
62927;SDS011;51070;52.236;-0.892;2023-04-24T06:13:23;5.60;;;1.60;;
62927;SDS011;51070;52.236;-0.892;2023-04-24T06:15:49;3.70;;;2.00;;
62927;SDS011;51070;52.236;-0.892;2023-04-24T06:18:15;4.20;;;1.90;;
62927;SDS011;51070;52.236;-0.892;2023-04-24T06:20:40;3.20;;;1.40;;
62927;SDS011;51070;52.236;-0.892;2023-04-24T06:23:09;3.70;;;1.60;;
62927;SDS011;51070;52.236;-0.892;2023-04-24T06:25:34;2.70;;;1.30;;
62927;SDS011;51070;52.236;-0.892;2023-04-24T06:28:00;4.50;;;2.30;;
62927;SDS011;51070;52.236;-0.892;2023-04-24T06:30:25;3.20;;;1.50;;
62927;SDS011;51070;52.236;-0.892;2023-04-24T06:32:52;2.70;;;1.10;;
62927;SDS011;51070;52.236;-0.892;2023-04-24T06:35:18;3.80;;;1.40;;
62927;SDS011;51070;52.236;-0.892;2023-04-24T06:37:43;7.60;;;2.20;;
62927;SDS011;51070;52.236;-0.892;2023-04-24T06:40:12;2.10;;;1.30;;
62927;SDS011;51070;52.236;-0.892;2023-04-24T06:42:38;6.20;;;1.40;;
62927;SDS011;51070;52.236;-0.892;2023-04-24T06:45:07;1.70;;;1.10;;
62927;SDS011;51070;52.236;-0.892;2023-04-24T06:47:33;1.50;;;1.10;;
62927;SDS011;51070;52.236;-0.892;2023-04-24T06:49:58;4.10;;;1.60;;
62927;SDS011;51070;52.236;-0.892;2023-04-24T06:52:23;2.70;;;1.20;;
62927;SDS011;51070;52.236;-0.892;2023-04-24T06:54:49;3.30;;;1.30;;
62927;SDS011;51070;52.236;-0.892;2023-04-24T06:57:15;5.50;;;1.60;;
62927;SDS011;51070;52.236;-0.892;2023-04-24T06:59:43;1.70;;;1.10;;
62927;SDS011;51070;52.236;-0.892;2023-04-24T07:02:09;4.90;;;1.30;;
62927;SDS011;51070;52.236;-0.892;2023-04-24T07:04:34;2.80;;;0.90;;
62927;SDS011;51070;52.236;-0.892;2023-04-24T07:07:00;5.50;;;1.50;;
62927;SDS011;51070;52.236;-0.892;2023-04-24T07:09:26;3.80;;;1.40;;
62927;SDS011;51070;52.236;-0.892;2023-04-24T07:11:52;2.20;;;1.10;;
62927;SDS011;51070;52.236;-0.892;2023-04-24T07:14:18;3.00;;;1.50;;
62927;SDS011;51070;52.236;-0.892;2023-04-24T07:16:44;3.00;;;1.00;;
62927;SDS011;51070;52.236;-0.892;2023-04-24T07:19:10;4.20;;;1.30;;
62927;SDS011;51070;52.236;-0.892;2023-04-24T07:21:36;4.00;;;1.30;;
62927;SDS011;51070;52.236;-0.892;2023-04-24T07:24:01;2.10;;;1.10;;
62927;SDS011;51070;52.236;-0.892;2023-04-24T07:26:30;3.50;;;1.50;;
62927;SDS011;51070;52.236;-0.892;2023-04-24T07:28:56;3.80;;;1.30;;
62927;SDS011;51070;52.236;-0.892;2023-04-24T07:31:22;4.60;;;1.50;;
62927;SDS011;51070;52.236;-0.892;2023-04-24T07:33:47;4.50;;;2.10;;
62927;SDS011;51070;52.236;-0.892;2023-04-24T07:36:13;2.20;;;1.20;;
62927;SDS011;51070;52.236;-0.892;2023-04-24T07:38:44;2.60;;;1.20;;
62927;SDS011;51070;52.236;-0.892;2023-04-24T07:41:10;5.40;;;1.70;;
62927;SDS011;51070;52.236;-0.892;2023-04-24T07:43:36;4.50;;;1.50;;
62927;SDS011;51070;52.236;-0.892;2023-04-24T07:46:01;2.50;;;1.20;;
62927;SDS011;51070;52.236;-0.892;2023-04-24T07:48:26;2.30;;;0.90;;
62927;SDS011;51070;52.236;-0.892;2023-04-24T07:50:52;3.20;;;1.10;;
62927;SDS011;51070;52.236;-0.892;2023-04-24T07:53:19;3.20;;;1.20;;
62927;SDS011;51070;52.236;-0.892;2023-04-24T07:55:44;3.30;;;1.50;;
62927;SDS011;51070;52.236;-0.892;2023-04-24T07:58:10;2.00;;;0.90;;
62927;SDS011;51070;52.236;-0.892;2023-04-24T08:00:35;2.30;;;1.00;;
62927;SDS011;51070;52.236;-0.892;2023-04-24T08:03:01;1.40;;;0.80;;
62927;SDS011;51070;52.236;-0.892;2023-04-24T08:05:27;3.90;;;1.40;;
62927;SDS011;51070;52.236;-0.892;2023-04-24T08:07:53;3.30;;;1.00;;
62927;SDS011;51070;52.236;-0.892;2023-04-24T08:10:20;2.90;;;1.20;;
62927;SDS011;51070;52.236;-0.892;2023-04-24T08:12:50;3.70;;;1.20;;
62927;SDS011;51070;52.236;-0.892;2023-04-24T08:15:15;3.10;;;1.40;;
62927;SDS011;51070;52.236;-0.892;2023-04-24T08:17:41;1.60;;;0.90;;
62927;SDS011;51070;52.236;-0.892;2023-04-24T08:20:08;5.70;;;1.30;;
62927;SDS011;51070;52.236;-0.892;2023-04-24T08:22:38;4.90;;;1.30;;
62927;SDS011;51070;52.236;-0.892;2023-04-24T08:25:05;2.70;;;1.30;;
62927;SDS011;51070;52.236;-0.892;2023-04-24T08:27:32;4.40;;;1.30;;
62927;SDS011;51070;52.236;-0.892;2023-04-24T08:29:58;4.30;;;1.30;;
62927;SDS011;51070;52.236;-0.892;2023-04-24T08:32:26;5.20;;;1.70;;
62927;SDS011;51070;52.236;-0.892;2023-04-24T08:34:54;2.80;;;1.30;;
62927;SDS011;51070;52.236;-0.892;2023-04-24T08:37:21;6.10;;;1.60;;
62927;SDS011;51070;52.236;-0.892;2023-04-24T08:39:47;2.60;;;1.20;;
62927;SDS011;51070;52.236;-0.892;2023-04-24T08:42:13;3.00;;;1.10;;
62927;SDS011;51070;52.236;-0.892;2023-04-24T08:44:40;5.00;;;1.10;;
62927;SDS011;51070;52.236;-0.892;2023-04-24T08:47:06;4.20;;;1.10;;
62927;SDS011;51070;52.236;-0.892;2023-04-24T08:49:33;3.60;;;1.10;;
62927;SDS011;51070;52.236;-0.892;2023-04-24T08:52:01;3.30;;;1.30;;
62927;SDS011;51070;52.236;-0.892;2023-04-24T08:54:28;2.00;;;1.10;;
62927;SDS011;51070;52.236;-0.892;2023-04-24T08:56:53;4.00;;;1.30;;
62927;SDS011;51070;52.236;-0.892;2023-04-24T08:59:26;5.30;;;1.40;;
62927;SDS011;51070;52.236;-0.892;2023-04-24T09:01:53;3.20;;;1.30;;
62927;SDS011;51070;52.236;-0.892;2023-04-24T09:04:20;3.70;;;1.40;;
62927;SDS011;51070;52.236;-0.892;2023-04-24T09:06:48;2.40;;;1.20;;
62927;SDS011;51070;52.236;-0.892;2023-04-24T09:09:15;4.60;;;1.30;;
62927;SDS011;51070;52.236;-0.892;2023-04-24T09:11:43;3.40;;;1.20;;
62927;SDS011;51070;52.236;-0.892;2023-04-24T09:14:09;3.00;;;1.20;;
62927;SDS011;51070;52.236;-0.892;2023-04-24T09:16:35;3.40;;;1.30;;
62927;SDS011;51070;52.236;-0.892;2023-04-24T09:19:00;2.90;;;1.20;;
62927;SDS011;51070;52.236;-0.892;2023-04-24T09:21:30;6.10;;;1.60;;
62927;SDS011;51070;52.236;-0.892;2023-04-24T09:24:01;1.80;;;1.10;;
62927;SDS011;51070;52.236;-0.892;2023-04-24T09:26:31;3.40;;;1.40;;
62927;SDS011;51070;52.236;-0.892;2023-04-24T09:29:02;6.40;;;1.40;;
62927;SDS011;51070;52.236;-0.892;2023-04-24T09:31:29;4.80;;;2.00;;
62927;SDS011;51070;52.236;-0.892;2023-04-24T09:33:55;5.60;;;1.50;;
62927;SDS011;51070;52.236;-0.892;2023-04-24T09:36:29;4.40;;;1.30;;
62927;SDS011;51070;52.236;-0.892;2023-04-24T09:38:59;4.00;;;1.50;;
62927;SDS011;51070;52.236;-0.892;2023-04-24T09:41:26;5.00;;;1.80;;
62927;SDS011;51070;52.236;-0.892;2023-04-24T09:43:56;5.30;;;1.60;;
62927;SDS011;51070;52.236;-0.892;2023-04-24T09:46:29;3.90;;;1.70;;
62927;SDS011;51070;52.236;-0.892;2023-04-24T09:49:02;3.80;;;1.30;;
62927;SDS011;51070;52.236;-0.892;2023-04-24T09:51:34;3.80;;;1.30;;
62927;SDS011;51070;52.236;-0.892;2023-04-24T09:54:01;3.40;;;1.60;;
62927;SDS011;51070;52.236;-0.892;2023-04-24T09:56:29;3.50;;;1.70;;
62927;SDS011;51070;52.236;-0.892;2023-04-24T09:59:07;5.30;;;1.80;;
62927;SDS011;51070;52.236;-0.892;2023-04-24T10:01:32;3.10;;;1.70;;
62927;SDS011;51070;52.236;-0.892;2023-04-24T10:03:58;4.10;;;1.70;;
62927;SDS011;51070;52.236;-0.892;2023-04-24T10:06:34;2.40;;;1.10;;
62927;SDS011;51070;52.236;-0.892;2023-04-24T10:09:00;6.90;;;1.40;;
62927;SDS011;51070;52.236;-0.892;2023-04-24T10:11:28;4.20;;;1.60;;
62927;SDS011;51070;52.236;-0.892;2023-04-24T10:13:56;4.50;;;1.60;;
62927;SDS011;51070;52.236;-0.892;2023-04-24T10:16:22;3.70;;;1.70;;
62927;SDS011;51070;52.236;-0.892;2023-04-24T10:18:48;3.40;;;1.70;;
62927;SDS011;51070;52.236;-0.892;2023-04-24T10:21:15;3.30;;;1.50;;
62927;SDS011;51070;52.236;-0.892;2023-04-24T10:23:41;3.80;;;1.80;;
62927;SDS011;51070;52.236;-0.892;2023-04-24T10:26:10;4.20;;;1.60;;
62927;SDS011;51070;52.236;-0.892;2023-04-24T10:28:44;5.10;;;1.50;;
62927;SDS011;51070;52.236;-0.892;2023-04-24T10:31:11;10.80;;;2.10;;
62927;SDS011;51070;52.236;-0.892;2023-04-24T10:33:38;6.90;;;1.80;;
62927;SDS011;51070;52.236;-0.892;2023-04-24T10:36:06;3.30;;;1.80;;
62927;SDS011;51070;52.236;-0.892;2023-04-24T10:41:10;3.50;;;1.40;;
62927;SDS011;51070;52.236;-0.892;2023-04-24T10:43:48;4.20;;;1.40;;
62927;SDS011;51070;52.236;-0.892;2023-04-24T10:46:29;3.60;;;1.60;;
62927;SDS011;51070;52.236;-0.892;2023-04-24T10:48:55;3.60;;;1.50;;
62927;SDS011;51070;52.236;-0.892;2023-04-24T10:51:22;4.80;;;1.60;;
62927;SDS011;51070;52.236;-0.892;2023-04-24T10:53:51;4.40;;;1.40;;
62927;SDS011;51070;52.236;-0.892;2023-04-24T10:56:17;6.40;;;2.00;;
62927;SDS011;51070;52.236;-0.892;2023-04-24T10:58:44;3.80;;;1.30;;
62927;SDS011;51070;52.236;-0.892;2023-04-24T11:01:24;5.60;;;2.00;;
62927;SDS011;51070;52.236;-0.892;2023-04-24T11:03:55;3.20;;;1.40;;
62927;SDS011;51070;52.236;-0.892;2023-04-24T11:06:32;3.10;;;1.30;;
62927;SDS011;51070;52.236;-0.892;2023-04-24T11:09:03;2.40;;;1.40;;
62927;SDS011;51070;52.236;-0.892;2023-04-24T11:11:32;4.60;;;1.70;;
62927;SDS011;51070;52.236;-0.892;2023-04-24T11:16:57;5.10;;;1.80;;
62927;SDS011;51070;52.236;-0.892;2023-04-24T11:19:18;4.40;;;1.70;;
62927;SDS011;51070;52.236;-0.892;2023-04-24T11:22:00;4.00;;;1.70;;
62927;SDS011;51070;52.236;-0.892;2023-04-24T11:27:15;3.40;;;1.80;;
62927;SDS011;51070;52.236;-0.892;2023-04-24T11:32:14;3.00;;;2.00;;
62927;SDS011;51070;52.236;-0.892;2023-04-24T11:34:46;4.50;;;2.00;;
62927;SDS011;51070;52.236;-0.892;2023-04-24T11:37:16;3.90;;;1.70;;
62927;SDS011;51070;52.236;-0.892;2023-04-24T11:39:42;3.10;;;1.40;;
62927;SDS011;51070;52.236;-0.892;2023-04-24T11:42:12;2.80;;;1.50;;
62927;SDS011;51070;52.236;-0.892;2023-04-24T11:44:41;3.10;;;1.30;;
62927;SDS011;51070;52.236;-0.892;2023-04-24T11:47:08;1.30;;;1.00;;
62927;SDS011;51070;52.236;-0.892;2023-04-24T11:49:33;3.00;;;1.50;;
62927;SDS011;51070;52.236;-0.892;2023-04-24T11:52:01;3.40;;;1.50;;
62927;SDS011;51070;52.236;-0.892;2023-04-24T11:54:27;3.40;;;1.60;;
62927;SDS011;51070;52.236;-0.892;2023-04-24T11:56:53;5.70;;;1.80;;
62927;SDS011;51070;52.236;-0.892;2023-04-24T11:59:19;5.80;;;1.90;;
62927;SDS011;51070;52.236;-0.892;2023-04-24T12:01:44;3.40;;;1.90;;
62927;SDS011;51070;52.236;-0.892;2023-04-24T12:04:11;5.30;;;2.00;;
62927;SDS011;51070;52.236;-0.892;2023-04-24T12:06:36;4.20;;;2.90;;
62927;SDS011;51070;52.236;-0.892;2023-04-24T12:09:02;4.80;;;2.10;;
62927;SDS011;51070;52.236;-0.892;2023-04-24T12:11:28;4.20;;;2.10;;
62927;SDS011;51070;52.236;-0.892;2023-04-24T12:13:54;4.00;;;1.80;;
62927;SDS011;51070;52.236;-0.892;2023-04-24T12:16:19;6.10;;;1.70;;
62927;SDS011;51070;52.236;-0.892;2023-04-24T12:18:45;5.40;;;1.80;;
62927;SDS011;51070;52.236;-0.892;2023-04-24T12:21:14;3.60;;;2.10;;
62927;SDS011;51070;52.236;-0.892;2023-04-24T12:23:54;9.50;;;4.10;;
62927;SDS011;51070;52.236;-0.892;2023-04-24T12:26:20;4.50;;;2.60;;
62927;SDS011;51070;52.236;-0.892;2023-04-24T12:28:47;7.40;;;4.70;;
62927;SDS011;51070;52.236;-0.892;2023-04-24T12:31:14;10.50;;;3.20;;
62927;SDS011;51070;52.236;-0.892;2023-04-24T12:33:40;5.90;;;3.00;;
62927;SDS011;51070;52.236;-0.892;2023-04-24T12:36:06;6.00;;;2.40;;
62927;SDS011;51070;52.236;-0.892;2023-04-24T12:38:31;4.90;;;2.80;;
62927;SDS011;51070;52.236;-0.892;2023-04-24T12:41:08;8.40;;;2.90;;
62927;SDS011;51070;52.236;-0.892;2023-04-24T12:43:35;4.30;;;2.80;;
62927;SDS011;51070;52.236;-0.892;2023-04-24T12:46:01;6.80;;;3.20;;
62927;SDS011;51070;52.236;-0.892;2023-04-24T12:48:28;4.90;;;2.60;;
62927;SDS011;51070;52.236;-0.892;2023-04-24T12:50:54;7.30;;;3.40;;
62927;SDS011;51070;52.236;-0.892;2023-04-24T12:53:22;4.70;;;2.60;;
62927;SDS011;51070;52.236;-0.892;2023-04-24T12:55:47;5.10;;;2.70;;
62927;SDS011;51070;52.236;-0.892;2023-04-24T12:58:18;5.90;;;2.60;;
62927;SDS011;51070;52.236;-0.892;2023-04-24T13:00:45;8.00;;;2.50;;
62927;SDS011;51070;52.236;-0.892;2023-04-24T13:03:11;3.70;;;2.00;;
62927;SDS011;51070;52.236;-0.892;2023-04-24T13:05:37;6.30;;;3.30;;
62927;SDS011;51070;52.236;-0.892;2023-04-24T13:08:02;5.80;;;2.40;;
62927;SDS011;51070;52.236;-0.892;2023-04-24T13:10:28;4.30;;;2.20;;
62927;SDS011;51070;52.236;-0.892;2023-04-24T13:12:53;5.40;;;2.30;;
62927;SDS011;51070;52.236;-0.892;2023-04-24T13:15:19;4.00;;;2.20;;
62927;SDS011;51070;52.236;-0.892;2023-04-24T13:17:45;5.50;;;2.10;;
62927;SDS011;51070;52.236;-0.892;2023-04-24T13:20:10;5.10;;;2.50;;
62927;SDS011;51070;52.236;-0.892;2023-04-24T13:22:36;6.40;;;2.90;;
62927;SDS011;51070;52.236;-0.892;2023-04-24T13:25:02;5.20;;;1.80;;
62927;SDS011;51070;52.236;-0.892;2023-04-24T13:27:27;5.80;;;2.40;;
62927;SDS011;51070;52.236;-0.892;2023-04-24T13:29:53;7.70;;;3.10;;
62927;SDS011;51070;52.236;-0.892;2023-04-24T13:32:18;5.40;;;2.50;;
62927;SDS011;51070;52.236;-0.892;2023-04-24T13:34:45;6.50;;;2.70;;
62927;SDS011;51070;52.236;-0.892;2023-04-24T13:37:11;5.80;;;3.60;;
62927;SDS011;51070;52.236;-0.892;2023-04-24T13:39:36;6.10;;;3.00;;
62927;SDS011;51070;52.236;-0.892;2023-04-24T13:42:02;6.20;;;2.40;;
62927;SDS011;51070;52.236;-0.892;2023-04-24T13:44:28;5.80;;;2.40;;
62927;SDS011;51070;52.236;-0.892;2023-04-24T13:46:53;4.30;;;2.10;;
62927;SDS011;51070;52.236;-0.892;2023-04-24T13:49:22;4.20;;;2.20;;
62927;SDS011;51070;52.236;-0.892;2023-04-24T13:51:51;6.60;;;2.20;;
62927;SDS011;51070;52.236;-0.892;2023-04-24T13:54:18;7.90;;;2.70;;
62927;SDS011;51070;52.236;-0.892;2023-04-24T13:56:44;6.50;;;2.30;;
62927;SDS011;51070;52.236;-0.892;2023-04-24T13:59:11;4.40;;;2.10;;
62927;SDS011;51070;52.236;-0.892;2023-04-24T14:01:37;5.80;;;2.50;;
62927;SDS011;51070;52.236;-0.892;2023-04-24T14:04:02;11.00;;;3.00;;
62927;SDS011;51070;52.236;-0.892;2023-04-24T14:06:28;5.70;;;2.50;;
62927;SDS011;51070;52.236;-0.892;2023-04-24T14:08:53;5.10;;;1.90;;
62927;SDS011;51070;52.236;-0.892;2023-04-24T14:11:19;6.90;;;2.40;;
62927;SDS011;51070;52.236;-0.892;2023-04-24T14:13:45;6.40;;;2.30;;
62927;SDS011;51070;52.236;-0.892;2023-04-24T14:16:11;4.70;;;1.90;;
62927;SDS011;51070;52.236;-0.892;2023-04-24T14:18:36;4.50;;;2.50;;
62927;SDS011;51070;52.236;-0.892;2023-04-24T14:21:02;5.40;;;1.70;;
62927;SDS011;51070;52.236;-0.892;2023-04-24T14:23:29;4.30;;;1.60;;
62927;SDS011;51070;52.236;-0.892;2023-04-24T14:25:54;3.00;;;2.00;;
62927;SDS011;51070;52.236;-0.892;2023-04-24T14:28:20;5.30;;;1.80;;
62927;SDS011;51070;52.236;-0.892;2023-04-24T14:30:49;3.30;;;1.50;;
62927;SDS011;51070;52.236;-0.892;2023-04-24T14:35:40;4.20;;;1.80;;
62927;SDS011;51070;52.236;-0.892;2023-04-24T14:38:07;3.90;;;2.10;;
62927;SDS011;51070;52.236;-0.892;2023-04-24T14:40:34;8.20;;;2.50;;
62927;SDS011;51070;52.236;-0.892;2023-04-24T14:43:00;7.30;;;2.20;;
62927;SDS011;51070;52.236;-0.892;2023-04-24T14:45:26;10.30;;;2.40;;